Accueil
METAR-TAF:

METAR-TAF

Aéroports :

Wattisham, Angleterre

latitude: 52-07N, longitude: 000-58E, altitude: 87 m

Observation

Le bulletin a été fait il y a 29 minutes, à 16:50 UTC
Vent 4 kt de ouest/nord-ouest
Température 17°C
Humidité 88%
Pression 1019 hPa
Visibilité 10 km ou plus
Quelques nuages à une hauteur de 3000 ft
Nuages épars à une hauteur de 4000 ft
Nuages fragmentés à une hauteur de 9000 ft
pluie faible

METAR: EGUW 241650Z 29004KT 9999 -RA FEW030 SCT040 BKN090 17/15 Q1019 NOSIG RMK BLU BLU

Heure: 18:19 (17:19 UTC)

Prévision

Le bulletin a été fait il y a 4 heures et 2 minutes, à 13:17 UTC
Prévision valable du 24 à 15 UTC au 24 à 24 UTC
Vent 10 kt de ouest/sud-ouest
Visibilité 10 km ou plus
Nuages épars à une hauteur de 3000 ft
Temporairement
du 24 à 18 UTC au 24 à 24 UTC
Nuages épars à une hauteur de 2000 ft
pluie faible

TAF: EGUW 241317Z 2415/2424 25010KT 9999 SCT030 TEMPO 2418/2424 -RA SCT020

Observations et prévisions météorologiques de plus de 4000 aéroports (messages METAR et TAF).

Les stations disponibles sont représentées par des disques jaunes et rouges sur la carte.

Passer la souris dessus pour voir le nom de la station.

Cliquer dessus pour voir les observations et prévisions météorologiques.

Pour changer de carte: cliquez sur les boutons verts avec une croix noire pour zoomer, sur le bouton vert avec un tiret pour effectuer un zoom arrière, ou sur les flèches vertes pour les cartes adjacentes.


METAR-TAF: